Latest Weather Observations for Townsville

IDQ60801

Issued at 5:31 pm EST Saturday 1 August 2015 (issued every 30 minutes, with the page automatically refreshed every 10 minutes)

About weather observations | Map of weather stations | Latest weather observations for QLD | Other Formats
Station Details ID: 032040 Name: TOWNSVILLE AERO Lat: -19.25 Lon: 146.77 Height: 4.34 m
Data from the previous 72 hours. | See also: Recent months at Townsville
Date/Time
EST
Temp
°C
App
Temp
°C
Dew
Point
Rel
Hum
%
Delta-T
°C
Wind Press
QNH
hPa
Press
MSL
hPa
Rain
since 9 am
mm
Dir
 
Spd
km/h
Gust
km/h
Spd
kts
Gust
kts
01/05:30pm 22.8 19.7 15.5 63 4.4 ENE 26 32 14 17 1018.1 1018.1 0.0
01/05:00pm 23.5 20.2 14.9 58 5.1 ENE 26 32 14 17 1018.0 1018.0 0.0
01/04:30pm 24.2 20.4 14.6 55 5.7 ENE 28 32 15 17 1017.9 1017.9 0.0
01/04:00pm 24.9 21.2 13.9 50 6.5 ENE 26 30 14 16 1017.9 1017.9 0.0
01/03:30pm 25.1 22.5 13.3 48 6.9 NE 19 26 10 14 1017.9 1017.9 0.0
01/03:00pm 25.4 22.2 11.9 43 7.7 NE 20 26 11 14 1018.1 1018.1 0.0
01/02:30pm 25.4 21.8 13.0 46 7.2 NE 24 33 13 18 1018.4 1018.4 0.0
01/02:00pm 26.3 21.7 11.1 38 8.6 ENE 26 30 14 16 1018.9 1018.9 0.0
01/01:30pm 26.2 22.2 11.9 41 8.2 ENE 24 30 13 16 1019.5 1019.5 0.0
01/01:00pm 25.9 22.2 10.3 37 8.7 E 20 28 11 15 1020.1 1020.1 0.0
01/12:30pm 26.4 22.9 11.0 38 8.7 ENE 20 30 11 16 1020.7 1020.7 0.0
01/12:00pm 25.1 21.7 11.3 42 7.8 E 20 32 11 17 1021.1 1021.1 0.0
01/11:30am 25.3 22.1 12.0 43 7.6 E 20 30 11 16 1021.4 1021.4 0.0
01/11:00am 24.5 20.7 12.3 46 7.0 ESE 24 32 13 17 1021.8 1021.8 0.0
01/10:30am 24.6 20.5 11.5 44 7.4 ESE 24 30 13 16 1022.1 1022.1 0.0
01/10:00am 23.9 20.1 11.2 44 7.1 ESE 22 30 12 16 1022.2 1022.2 0.0
01/09:30am 23.2 21.7 13.1 53 5.8 SE 13 19 7 10 1022.3 1022.3 0.0
01/09:00am 22.6 22.3 13.4 56 5.3 SSE 7 13 4 7 1022.1 1022.1 0.0
01/08:30am 20.6 20.6 14.2 66 3.7 SSW 7 9 4 5 1021.9 1021.9 0.0
01/08:00am 18.7 18.7 14.2 75 2.6 WSW 7 9 4 5 1021.7 1021.7 0.0
01/07:30am 15.8 15.7 13.8 88 1.1 W 7 9 4 5 1021.3 1021.3 0.0
01/07:00am 14.0 13.6 12.9 93 0.6 W 7 9 4 5 1021.1 1021.1 0.0
01/06:30am 14.2 13.8 12.9 92 0.7 WSW 7 9 4 5 1020.9 1020.9 0.0
01/06:00am 14.6 14.9 13.3 92 0.7 SSE 4 9 2 5 1020.5 1020.5 0.0
01/05:30am 15.4 16.2 13.8 90 0.9 SSE 2 7 1 4 1020.1 1020.1 0.0
01/05:00am 17.0 16.8 14.6 86 1.4 S 9 11 5 6 1019.8 1019.8 0.0
01/04:30am 17.1 16.8 14.3 83 1.6 SSE 9 11 5 6 1019.6 1019.6 0.0
01/04:00am 18.1 17.6 14.8 81 1.9 SE 11 13 6 7 1019.7 1019.7 0.0
01/03:30am 18.7 18.2 14.9 78 2.2 SE 11 13 6 7 1019.7 1019.7 0.0
01/03:00am 19.1 18.2 14.8 76 2.5 SE 13 17 7 9 1019.6 1019.6 0.0
01/02:30am 19.8 18.1 14.7 72 3.0 ESE 17 20 9 11 1019.7 1019.7 0.0
01/02:00am 19.4 19.2 14.8 75 2.7 SSE 9 15 5 8 1019.8 1019.8 0.0
01/01:30am 19.7 18.7 14.7 73 2.9 SE 13 17 7 9 1020.1 1020.1 0.0
01/01:00am 19.9 18.6 14.8 72 3.0 ESE 15 19 8 10 1020.3 1020.3 0.0
01/12:30am 20.0 19.2 15.1 73 2.9 SE 13 17 7 9 1020.4 1020.4 0.0
01/12:00am 19.8 18.7 15.4 76 2.6 SE 15 17 8 9 1020.5 1020.5 0.0
 
Date/Time
EST
Temp
°C
App
Temp
°C
Dew
Point
Rel
Hum
%
Delta-T
°C
Wind Press
QNH
hPa
Press
MSL
hPa
Rain
since 9 am
mm
Dir
 
Spd
km/h
Gust
km/h
Spd
kts
Gust
kts
31/11:30pm 19.6 18.9 15.4 77 2.5 SE 13 15 7 8 1020.6 1020.6 0.0
31/11:00pm 19.7 18.7 15.5 77 2.5 SE 15 20 8 11 1020.6 1020.6 0.0
31/10:30pm 20.1 18.7 15.5 75 2.7 ESE 17 20 9 11 1020.6 1020.6 0.0
31/10:00pm 20.4 18.8 16.1 76 2.6 ESE 19 22 10 12 1020.4 1020.4 0.0
31/09:30pm 20.9 19.1 16.1 74 2.9 ESE 20 28 11 15 1020.3 1020.3 0.0
31/09:00pm 20.9 19.6 15.7 72 3.1 ESE 17 22 9 12 1020.2 1020.2 0.0
31/08:30pm 21.1 19.2 15.7 71 3.2 ESE 20 30 11 16 1019.7 1019.7 0.0
31/08:00pm 21.2 19.5 15.7 71 3.3 ESE 19 26 10 14 1019.3 1019.3 0.0
31/07:30pm 21.3 19.2 15.2 68 3.6 E 20 28 11 15 1018.9 1018.9 0.0
31/07:00pm 21.3 20.1 16.2 72 3.1 E 17 28 9 15 1018.7 1018.7 0.0
31/06:30pm 21.6 20.1 15.4 68 3.7 E 17 30 9 16 1018.5 1018.5 0.0
31/06:00pm 21.8 19.1 15.6 68 3.7 ENE 24 32 13 17 1018.2 1018.2 0.0
31/05:30pm 22.4 19.6 15.4 64 4.2 ENE 24 33 13 18 1018.1 1018.1 0.0
31/05:00pm 23.2 19.4 14.8 59 5.0 ENE 28 35 15 19 1017.8 1017.8 0.0
31/04:30pm 23.7 19.5 15.6 60 4.9 ENE 32 37 17 20 1017.6 1017.6 0.0
31/04:00pm 24.5 20.2 14.4 53 6.0 ENE 30 35 16 19 1017.4 1017.4 0.0
31/03:30pm 25.4 21.0 13.0 46 7.2 ENE 28 33 15 18 1017.4 1017.4 0.0
31/03:00pm 25.4 21.3 13.9 49 6.8 ENE 28 33 15 18 1017.7 1017.7 0.0
31/02:30pm 25.3 20.6 13.3 47 7.0 ENE 30 37 16 20 1018.1 1018.1 0.0
31/02:00pm 26.2 21.0 11.7 40 8.3 E 30 35 16 19 1018.4 1018.4 0.0
31/01:30pm 25.7 21.2 12.5 44 7.6 ENE 28 33 15 18 1018.9 1018.9 0.0
31/01:00pm 25.4 21.2 12.4 44 7.5 ENE 26 33 14 18 1019.5 1019.5 0.0
31/12:30pm 26.0 22.3 10.2 37 8.8 E 20 30 11 16 1020.0 1020.0 0.0
31/12:00pm 25.2 20.2 10.9 40 8.0 E 28 35 15 19 1020.8 1020.8 0.0
31/11:30am 25.5 21.2 10.9 40 8.2 E 24 32 13 17 1021.3 1021.3 0.0
31/11:00am 24.6 20.6 11.7 44 7.3 ESE 24 32 13 17 1021.8 1021.8 0.0
31/10:30am 24.1 19.3 11.7 45 7.0 ESE 28 35 15 19 1022.1 1022.1 0.0
31/10:00am 23.7 19.6 11.4 46 6.9 ESE 24 32 13 17 1022.3 1022.3 0.0
31/09:30am 22.8 20.1 11.8 50 6.2 SSE 17 24 9 13 1022.3 1022.3 0.0
31/09:00am 21.8 21.7 12.0 53 5.5 S 4 9 2 5 1022.3 1022.3 0.0
31/08:30am 20.5 19.6 12.5 60 4.5 SE 9 11 5 6 1022.0 1022.0 0.0
31/08:00am 18.7 19.6 13.0 69 3.2 CALM 0 0 0 0 1021.7 1021.7 0.0
31/07:30am 16.4 17.3 13.0 80 1.9 CALM 0 0 0 0 1021.4 1021.4 0.0
31/07:00am 14.8 15.5 12.2 84 1.4 CALM 0 0 0 0 1021.1 1021.1 0.0
31/06:30am 13.9 14.5 12.0 88 1.0 CALM 0 0 0 0 1021.0 1021.0 0.0
31/06:00am 15.1 16.0 12.9 87 1.2 CALM 0 0 0 0 1020.9 1020.9 0.0
31/05:30am 13.5 14.1 12.0 91 0.8 CALM 0 0 0 0 1020.7 1020.7 0.0
31/05:00am 14.9 15.6 12.3 84 1.4 CALM 0 0 0 0 1020.6 1020.6 0.0
31/04:30am 16.3 17.3 13.1 81 1.8 CALM 0 7 0 4 1020.6 1020.6 0.0
31/04:00am 16.3 16.1 13.1 81 1.8 SW 6 11 3 6 1021.0 1021.0 0.0
31/03:30am 15.6 16.5 12.9 84 1.5 CALM 0 9 0 5 1021.0 1021.0 0.0
31/03:00am 15.3 16.2 12.8 85 1.4 CALM 0 0 0 0 1021.0 1021.0 0.0
31/02:30am 15.4 16.2 12.7 84 1.5 CALM 0 0 0 0 1021.1 1021.1 0.0
31/02:00am 16.7 17.7 13.1 79 2.0 CALM 0 0 0 0 1021.2 1021.2 0.0
31/01:30am 17.2 17.1 13.3 78 2.2 S 6 11 3 6 1021.5 1021.5 0.0
31/01:00am 16.7 15.5 12.9 78 2.1 S 11 13 6 7 1021.8 1021.8 0.0
31/12:30am 19.3 17.6 13.7 70 3.2 SE 15 19 8 10 1022.0 1022.0 0.0
31/12:00am 20.1 18.0 13.5 66 3.8 SE 17 28 9 15 1022.0 1022.0 0.0
 
Date/Time
EST
Temp
°C
App
Temp
°C
Dew
Point
Rel
Hum
%
Delta-T
°C
Wind Press
QNH
hPa
Press
MSL
hPa
Rain
since 9 am
mm
Dir
 
Spd
km/h
Gust
km/h
Spd
kts
Gust
kts
30/11:30pm 19.9 17.9 14.0 69 3.4 SE 17 26 9 14 1022.0 1022.0 0.0
30/11:00pm 20.1 18.5 14.0 68 3.5 SE 15 19 8 10 1022.0 1022.0 0.0
30/10:30pm 20.0 18.5 14.1 69 3.4 ESE 15 19 8 10 1021.9 1021.9 0.0
30/10:00pm 20.0 18.5 14.3 69 3.3 ESE 15 17 8 9 1021.8 1021.8 0.0
30/09:30pm 19.9 19.4 14.8 72 3.0 SE 11 15 6 8 1021.9 1021.9 0.0
30/09:00pm 19.9 19.4 15.0 73 2.9 SSE 11 15 6 8 1021.8 1021.8 0.0
30/08:30pm 20.8 20.0 15.2 70 3.3 SE 13 19 7 10 1021.5 1021.5 0.0
30/08:00pm 21.1 19.0 15.2 69 3.5 ESE 20 28 11 15 1021.1 1021.1 0.0
30/07:30pm 21.1 18.1 14.8 67 3.7 ESE 24 32 13 17 1020.8 1020.8 0.0
30/07:00pm 21.3 18.3 14.8 66 3.8 ESE 24 35 13 19 1020.5 1020.5 0.0
30/06:30pm 21.6 18.4 14.2 62 4.3 ESE 24 33 13 18 1020.2 1020.2 0.0
30/06:00pm 21.7 19.0 13.6 60 4.7 E 20 28 11 15 1020.0 1020.0 0.0
30/05:30pm 22.5 18.6 13.3 56 5.3 E 26 33 14 18 1019.8 1019.8 0.0
30/05:00pm 23.2 18.3 13.6 54 5.6 E 32 41 17 22 1019.6 1019.6 0.0
30/04:30pm 24.2 19.9 13.2 50 6.4 E 28 39 15 21 1019.6 1019.6 0.0
30/04:00pm 24.2 19.3 12.7 48 6.6 E 30 35 16 19 1019.6 1019.6 0.0
30/03:30pm 25.1 19.9 13.3 48 6.9 E 33 43 18 23 1019.6 1019.6 0.0
30/03:00pm 25.0 19.6 12.3 45 7.3 ENE 32 41 17 22 1019.8 1019.8 0.0
30/02:30pm 25.0 20.1 12.7 46 7.1 ENE 30 39 16 21 1019.9 1019.9 0.0
30/02:00pm 25.2 19.7 12.3 44 7.4 ENE 33 41 18 22 1020.2 1020.2 0.0
30/01:30pm 25.0 20.0 13.4 48 6.8 ENE 32 39 17 21 1020.6 1020.6 0.0
30/01:00pm 25.6 22.3 12.9 45 7.4 ENE 22 32 12 17 1021.0 1021.0 0.0
30/12:30pm 25.0 21.4 12.0 44 7.4 ESE 22 37 12 20 1021.7 1021.7 0.0
30/12:00pm 24.9 20.5 11.7 43 7.5 E 26 33 14 18 1022.2 1022.2 0.0
30/11:30am 25.2 21.5 11.6 42 7.7 ESE 22 32 12 17 1022.7 1022.7 0.0
30/11:00am 24.5 20.9 11.8 45 7.2 E 22 33 12 18 1023.2 1023.2 0.0
30/10:30am 24.2 21.4 11.2 44 7.3 SSE 17 26 9 14 1023.5 1023.5 0.0
30/10:00am 22.9 20.2 11.7 49 6.3 SE 17 26 9 14 1023.8 1023.8 0.0
30/09:30am 22.3 19.3 11.8 51 5.9 SSE 19 30 10 16 1023.8 1023.8 0.0
30/09:00am 21.6 19.3 11.8 53 5.5 SSE 15 22 8 12 1023.7 1023.7 0.0
30/08:30am 20.2 19.5 11.9 59 4.6 SE 7 15 4 8 1023.4 1023.4 0.0
30/08:00am 18.2 19.0 12.6 70 3.1 CALM 0 0 0 0 1023.2 1023.2 0.0
30/07:30am 14.6 15.2 11.8 83 1.5 CALM 0 0 0 0 1023.1 1023.1 0.0
30/07:00am 13.9 14.3 11.3 84 1.4 CALM 0 0 0 0 1022.8 1022.8 0.0
30/06:30am 13.9 14.4 11.7 86 1.2 CALM 0 0 0 0 1022.4 1022.4 0.0
30/06:00am 13.4 13.8 11.3 87 1.1 CALM 0 0 0 0 1022.1 1022.1 0.0
30/05:30am 13.5 12.6 11.4 87 1.1 S 7 9 4 5 1021.9 1021.9 0.0
30/05:00am 14.2 12.6 11.4 83 1.5 S 11 13 6 7 1021.9 1021.9 0.0
30/04:30am 14.6 13.5 11.8 83 1.5 S 9 13 5 7 1021.8 1021.8 0.0
30/04:00am 15.4 15.2 11.9 79 1.9 SSW 4 9 2 5 1021.9 1021.9 0.0
30/03:30am 17.5 15.7 12.0 70 3.0 SSE 13 19 7 10 1022.1 1022.1 0.0
30/03:00am 18.3 15.8 12.4 68 3.3 SSE 17 20 9 11 1022.1 1022.1 0.0
30/02:30am 18.0 16.3 12.4 70 3.1 SE 13 19 7 10 1022.2 1022.2 0.0
30/02:00am 18.6 16.5 12.3 67 3.5 SE 15 19 8 10 1022.7 1022.7 0.0
30/01:30am 19.0 16.5 12.2 64 3.8 SE 17 26 9 14 1022.9 1022.9 0.0
30/01:00am 19.3 15.7 11.9 62 4.1 SSE 22 32 12 17 1023.1 1023.1 0.0
30/12:30am 19.2 16.3 12.2 64 3.9 SSE 19 24 10 13 1023.4 1023.4 0.0
30/12:00am 19.5 16.6 12.3 63 4.0 SE 19 26 10 14 1023.4 1023.4 0.0
 
Date/Time
EST
Temp
°C
App
Temp
°C
Dew
Point
Rel
Hum
%
Delta-T
°C
Wind Press
QNH
hPa
Press
MSL
hPa
Rain
since 9 am
mm
Dir
 
Spd
km/h
Gust
km/h
Spd
kts
Gust
kts
29/11:30pm 19.9 17.0 12.8 63 4.0 SE 20 28 11 15 1023.5 1023.5 0.0
29/11:00pm 20.6 16.9 12.8 61 4.4 SE 24 32 13 17 1023.7 1023.7 0.0
29/10:30pm 20.8 16.5 13.3 62 4.3 SE 28 33 15 18 1024.0 1024.0 0.0
29/10:00pm 21.0 16.6 12.9 60 4.6 ESE 28 35 15 19 1023.9 1023.9 0.0
29/09:30pm 21.3 17.4 13.3 60 4.6 ESE 26 33 14 18 1023.9 1023.9 0.0
29/09:00pm 21.3 17.1 13.5 61 4.5 ESE 28 35 15 19 1023.9 1023.9 0.0
29/08:30pm 21.3 17.0 13.3 60 4.6 ESE 28 35 15 19 1023.7 1023.7 0.0
29/08:00pm 21.4 16.8 13.4 60 4.6 ESE 30 39 16 21 1023.5 1023.5 0.0
29/07:30pm 21.6 17.4 13.4 59 4.7 ESE 28 37 15 20 1023.2 1023.2 0.0
29/07:00pm 21.8 17.3 13.9 61 4.6 ESE 30 44 16 24 1022.6 1022.6 0.0
29/06:30pm 21.8 17.2 14.5 63 4.3 E 32 43 17 23 1022.3 1022.3 0.0
29/06:00pm 22.1 18.1 14.0 60 4.7 E 28 43 15 23 1021.8 1021.8 0.0

Other Formats:

Comma delimited format used in spreadsheet applications
http://www.bom.gov.au/fwo/IDQ60801/IDQ60801.94294.axf

JavaScript Object Notation format (JSON) in row-major order
http://www.bom.gov.au/fwo/IDQ60801/IDQ60801.94294.json